sensor_id;sensor_type;location;lat;lon;timestamp;pressure;altitude;pressure_sealevel;temperature;humidity
76352;BME280;65179;47.786;19.138;2023-09-19T00:00:42;99754.44;;;22.67;63.71
76352;BME280;65179;47.786;19.138;2023-09-19T00:03:09;99757.41;;;22.70;64.03
76352;BME280;65179;47.786;19.138;2023-09-19T00:05:37;99764.25;;;22.73;63.04
76352;BME280;65179;47.786;19.138;2023-09-19T00:08:04;99763.59;;;22.67;63.35
76352;BME280;65179;47.786;19.138;2023-09-19T00:10:30;99764.09;;;22.69;63.28
76352;BME280;65179;47.786;19.138;2023-09-19T00:13:01;99771.94;;;22.76;62.94
76352;BME280;65179;47.786;19.138;2023-09-19T00:15:31;99764.75;;;22.75;62.43
76352;BME280;65179;47.786;19.138;2023-09-19T00:18:00;99754.41;;;22.80;62.63
76352;BME280;65179;47.786;19.138;2023-09-19T00:20:26;99759.88;;;22.72;62.43
76352;BME280;65179;47.786;19.138;2023-09-19T00:22:51;99754.00;;;22.73;62.34
76352;BME280;65179;47.786;19.138;2023-09-19T00:25:19;99750.91;;;22.75;62.38
76352;BME280;65179;47.786;19.138;2023-09-19T00:27:45;99750.53;;;22.68;62.51
76352;BME280;65179;47.786;19.138;2023-09-19T00:30:13;99748.41;;;22.65;62.69
76352;BME280;65179;47.786;19.138;2023-09-19T00:32:46;99746.97;;;22.67;62.71
76352;BME280;65179;47.786;19.138;2023-09-19T00:35:14;99739.69;;;22.57;62.83
76352;BME280;65179;47.786;19.138;2023-09-19T00:37:44;99730.91;;;22.55;63.12
76352;BME280;65179;47.786;19.138;2023-09-19T00:40:10;99736.63;;;22.59;63.24
76352;BME280;65179;47.786;19.138;2023-09-19T00:42:49;99736.63;;;22.59;63.34
76352;BME280;65179;47.786;19.138;2023-09-19T00:45:17;99729.56;;;22.53;63.36
76352;BME280;65179;47.786;19.138;2023-09-19T00:47:50;99752.94;;;22.60;63.24
76352;BME280;65179;47.786;19.138;2023-09-19T00:50:23;99733.28;;;22.48;63.85
76352;BME280;65179;47.786;19.138;2023-09-19T00:52:53;99742.66;;;22.39;64.20
76352;BME280;65179;47.786;19.138;2023-09-19T00:55:21;99750.75;;;22.35;64.20
76352;BME280;65179;47.786;19.138;2023-09-19T00:57:47;99757.50;;;22.43;63.89
76352;BME280;65179;47.786;19.138;2023-09-19T01:00:15;99756.28;;;22.35;64.48
76352;BME280;65179;47.786;19.138;2023-09-19T01:02:42;99755.66;;;22.38;64.85
76352;BME280;65179;47.786;19.138;2023-09-19T01:05:11;99750.97;;;22.39;64.50
76352;BME280;65179;47.786;19.138;2023-09-19T01:07:40;99754.84;;;22.38;64.60
76352;BME280;65179;47.786;19.138;2023-09-19T01:10:07;99750.63;;;22.40;64.78
76352;BME280;65179;47.786;19.138;2023-09-19T01:18:04;99739.47;;;22.45;64.68
76352;BME280;65179;47.786;19.138;2023-09-19T01:20:45;99748.63;;;22.54;64.53
76352;BME280;65179;47.786;19.138;2023-09-19T01:29:33;99745.31;;;22.66;64.52
76352;BME280;65179;47.786;19.138;2023-09-19T01:32:04;99745.81;;;22.68;64.35
76352;BME280;65179;47.786;19.138;2023-09-19T01:34:55;99740.63;;;22.67;64.18
76352;BME280;65179;47.786;19.138;2023-09-19T01:37:30;99746.81;;;22.72;64.46
76352;BME280;65179;47.786;19.138;2023-09-19T01:40:06;99734.97;;;22.72;64.20
76352;BME280;65179;47.786;19.138;2023-09-19T01:45:13;99740.50;;;22.72;64.48
76352;BME280;65179;47.786;19.138;2023-09-19T01:47:54;99736.56;;;22.73;64.51
76352;BME280;65179;47.786;19.138;2023-09-19T01:53:15;99731.16;;;22.68;64.73
76352;BME280;65179;47.786;19.138;2023-09-19T01:55:48;99734.06;;;22.62;64.95
76352;BME280;65179;47.786;19.138;2023-09-19T02:00:56;99720.84;;;22.59;64.99
76352;BME280;65179;47.786;19.138;2023-09-19T02:03:24;99717.81;;;22.47;65.41
76352;BME280;65179;47.786;19.138;2023-09-19T02:05:51;99716.38;;;22.28;66.09
76352;BME280;65179;47.786;19.138;2023-09-19T02:08:19;99720.69;;;22.42;65.53
76352;BME280;65179;47.786;19.138;2023-09-19T02:10:46;99710.97;;;22.45;66.04
76352;BME280;65179;47.786;19.138;2023-09-19T02:13:16;99716.16;;;22.46;65.62
76352;BME280;65179;47.786;19.138;2023-09-19T02:15:42;99716.66;;;22.48;65.57
76352;BME280;65179;47.786;19.138;2023-09-19T02:18:09;99718.94;;;22.46;65.79
76352;BME280;65179;47.786;19.138;2023-09-19T02:20:35;99716.50;;;22.45;65.82
76352;BME280;65179;47.786;19.138;2023-09-19T02:23:00;99713.66;;;22.36;66.17
76352;BME280;65179;47.786;19.138;2023-09-19T02:25:26;99723.28;;;22.39;66.21
76352;BME280;65179;47.786;19.138;2023-09-19T02:27:52;99716.22;;;22.33;66.70
76352;BME280;65179;47.786;19.138;2023-09-19T02:30:19;99718.69;;;22.34;66.33
76352;BME280;65179;47.786;19.138;2023-09-19T02:32:46;99716.53;;;22.31;66.60
76352;BME280;65179;47.786;19.138;2023-09-19T02:35:11;99712.78;;;22.27;66.51
76352;BME280;65179;47.786;19.138;2023-09-19T02:37:37;99721.19;;;22.22;66.64
76352;BME280;65179;47.786;19.138;2023-09-19T02:40:03;99708.44;;;22.13;66.83
76352;BME280;65179;47.786;19.138;2023-09-19T02:42:38;99714.78;;;22.13;66.80
76352;BME280;65179;47.786;19.138;2023-09-19T02:45:04;99716.84;;;22.08;67.07
76352;BME280;65179;47.786;19.138;2023-09-19T02:47:31;99726.78;;;22.09;66.97
76352;BME280;65179;47.786;19.138;2023-09-19T02:49:56;99726.47;;;22.10;66.80
76352;BME280;65179;47.786;19.138;2023-09-19T02:52:22;99738.62;;;22.09;66.86
76352;BME280;65179;47.786;19.138;2023-09-19T02:54:48;99730.06;;;22.11;66.85
76352;BME280;65179;47.786;19.138;2023-09-19T02:57:13;99736.94;;;22.00;67.62
76352;BME280;65179;47.786;19.138;2023-09-19T02:59:40;99727.72;;;22.04;67.51
76352;BME280;65179;47.786;19.138;2023-09-19T03:02:07;99735.88;;;22.09;67.15
76352;BME280;65179;47.786;19.138;2023-09-19T03:04:33;99733.31;;;22.13;67.11
76352;BME280;65179;47.786;19.138;2023-09-19T03:07:00;99731.56;;;22.17;67.09
76352;BME280;65179;47.786;19.138;2023-09-19T03:09:26;99724.59;;;22.19;67.21
76352;BME280;65179;47.786;19.138;2023-09-19T03:11:51;99715.16;;;22.20;67.47
76352;BME280;65179;47.786;19.138;2023-09-19T03:14:17;99697.03;;;22.14;67.43
76352;BME280;65179;47.786;19.138;2023-09-19T03:16:45;99703.19;;;22.11;68.03
76352;BME280;65179;47.786;19.138;2023-09-19T03:19:10;99692.25;;;22.06;68.15
76352;BME280;65179;47.786;19.138;2023-09-19T03:21:36;99686.16;;;21.96;68.72
76352;BME280;65179;47.786;19.138;2023-09-19T03:24:02;99687.28;;;21.95;68.60
76352;BME280;65179;47.786;19.138;2023-09-19T03:26:27;99695.66;;;21.89;69.02
76352;BME280;65179;47.786;19.138;2023-09-19T03:28:53;99699.25;;;21.90;69.14
76352;BME280;65179;47.786;19.138;2023-09-19T03:31:19;99702.84;;;21.91;69.17
76352;BME280;65179;47.786;19.138;2023-09-19T03:33:44;99708.69;;;21.89;69.42
76352;BME280;65179;47.786;19.138;2023-09-19T03:36:10;99732.44;;;21.76;70.48
76352;BME280;65179;47.786;19.138;2023-09-19T03:38:38;99716.38;;;21.78;70.20
76352;BME280;65179;47.786;19.138;2023-09-19T03:41:04;99723.19;;;21.81;71.08
76352;BME280;65179;47.786;19.138;2023-09-19T03:43:29;99725.72;;;21.82;70.22
76352;BME280;65179;47.786;19.138;2023-09-19T03:45:54;99724.47;;;21.88;70.06
76352;BME280;65179;47.786;19.138;2023-09-19T03:48:20;99721.38;;;21.90;69.94
76352;BME280;65179;47.786;19.138;2023-09-19T03:50:47;99721.38;;;21.90;70.04
76352;BME280;65179;47.786;19.138;2023-09-19T03:53:12;99726.81;;;21.95;69.72
76352;BME280;65179;47.786;19.138;2023-09-19T03:55:38;99717.78;;;21.89;70.20
76352;BME280;65179;47.786;19.138;2023-09-19T03:58:05;99725.66;;;21.96;69.70
76352;BME280;65179;47.786;19.138;2023-09-19T04:00:30;99720.78;;;21.93;69.76
76352;BME280;65179;47.786;19.138;2023-09-19T04:02:55;99728.63;;;22.00;69.88
76352;BME280;65179;47.786;19.138;2023-09-19T04:05:22;99732.22;;;22.00;70.12
76352;BME280;65179;47.786;19.138;2023-09-19T04:07:48;99727.91;;;21.94;70.14
76352;BME280;65179;47.786;19.138;2023-09-19T04:10:15;99725.78;;;21.91;70.32
76352;BME280;65179;47.786;19.138;2023-09-19T04:12:40;99736.34;;;21.89;70.36
76352;BME280;65179;47.786;19.138;2023-09-19T04:15:06;99746.59;;;21.88;70.86
76352;BME280;65179;47.786;19.138;2023-09-19T04:17:32;99746.69;;;21.83;71.12
76352;BME280;65179;47.786;19.138;2023-09-19T04:20:01;99756.38;;;21.81;71.23
76352;BME280;65179;47.786;19.138;2023-09-19T04:22:26;99744.31;;;21.77;71.45
76352;BME280;65179;47.786;19.138;2023-09-19T04:24:51;99752.81;;;21.80;71.50
76352;BME280;65179;47.786;19.138;2023-09-19T04:27:17;99753.09;;;21.79;71.70
76352;BME280;65179;47.786;19.138;2023-09-19T04:29:44;99747.38;;;21.75;71.81
76352;BME280;65179;47.786;19.138;2023-09-19T04:32:10;99752.59;;;21.77;72.22
76352;BME280;65179;47.786;19.138;2023-09-19T04:34:36;99752.72;;;21.72;nan
76352;BME280;65179;47.786;19.138;2023-09-19T04:37:02;99754.16;;;21.69;71.63
76352;BME280;65179;47.786;19.138;2023-09-19T04:39:28;99755.81;;;21.57;71.14
76352;BME280;65179;47.786;19.138;2023-09-19T04:41:54;99756.50;;;21.49;70.94
76352;BME280;65179;47.786;19.138;2023-09-19T04:44:20;99766.75;;;21.35;71.08
76352;BME280;65179;47.786;19.138;2023-09-19T04:46:45;99769.78;;;21.33;71.27
76352;BME280;65179;47.786;19.138;2023-09-19T04:49:13;99770.31;;;21.22;71.56
76352;BME280;65179;47.786;19.138;2023-09-19T04:51:39;99782.56;;;21.29;71.57
76352;BME280;65179;47.786;19.138;2023-09-19T04:54:05;99782.56;;;21.29;71.76
76352;BME280;65179;47.786;19.138;2023-09-19T04:56:31;99787.19;;;21.20;71.91
76352;BME280;65179;47.786;19.138;2023-09-19T04:59:00;99782.59;;;21.16;72.49
76352;BME280;65179;47.786;19.138;2023-09-19T05:01:26;99778.28;;;21.23;72.13
76352;BME280;65179;47.786;19.138;2023-09-19T05:03:52;99788.31;;;21.19;72.31
76352;BME280;65179;47.786;19.138;2023-09-19T05:06:21;99790.13;;;21.10;72.84
76352;BME280;65179;47.786;19.138;2023-09-19T05:08:50;99795.16;;;20.89;73.59
76352;BME280;65179;47.786;19.138;2023-09-19T05:11:18;99803.97;;;20.91;73.55
76352;BME280;65179;47.786;19.138;2023-09-19T05:13:45;99803.44;;;20.89;73.54
76352;BME280;65179;47.786;19.138;2023-09-19T05:16:10;99801.78;;;20.88;73.66
76352;BME280;65179;47.786;19.138;2023-09-19T05:18:36;99797.59;;;20.91;73.78
76352;BME280;65179;47.786;19.138;2023-09-19T05:21:02;99810.69;;;20.85;74.63
76352;BME280;65179;47.786;19.138;2023-09-19T05:23:28;99811.84;;;20.66;75.89
76352;BME280;65179;47.786;19.138;2023-09-19T05:25:54;99811.59;;;20.62;76.05
76352;BME280;65179;47.786;19.138;2023-09-19T05:28:19;99816.38;;;20.57;76.85
76352;BME280;65179;47.786;19.138;2023-09-19T05:30:45;99820.13;;;20.47;77.38
76352;BME280;65179;47.786;19.138;2023-09-19T05:33:11;99820.50;;;20.59;76.60
76352;BME280;65179;47.786;19.138;2023-09-19T05:35:37;99822.72;;;20.38;78.27
76352;BME280;65179;47.786;19.138;2023-09-19T05:38:05;99820.63;;;20.49;77.11
76352;BME280;65179;47.786;19.138;2023-09-19T05:40:34;99814.22;;;20.35;78.77
76352;BME280;65179;47.786;19.138;2023-09-19T05:43:00;99814.69;;;20.42;78.35
76352;BME280;65179;47.786;19.138;2023-09-19T05:45:25;99798.78;;;20.34;78.40
76352;BME280;65179;47.786;19.138;2023-09-19T05:47:53;99803.66;;;20.42;77.99
76352;BME280;65179;47.786;19.138;2023-09-19T05:50:26;99804.91;;;20.31;78.66
76352;BME280;65179;47.786;19.138;2023-09-19T05:52:52;99802.22;;;20.26;78.79
76352;BME280;65179;47.786;19.138;2023-09-19T05:55:18;99805.31;;;20.19;79.26
76352;BME280;65179;47.786;19.138;2023-09-19T05:57:49;99812.56;;;20.15;79.70
76352;BME280;65179;47.786;19.138;2023-09-19T06:00:15;99808.44;;;20.13;79.52
76352;BME280;65179;47.786;19.138;2023-09-19T06:02:43;99812.34;;;20.12;79.39
76352;BME280;65179;47.786;19.138;2023-09-19T06:05:10;99825.56;;;20.10;79.39
76352;BME280;65179;47.786;19.138;2023-09-19T06:07:36;99819.38;;;19.99;80.12
76352;BME280;65179;47.786;19.138;2023-09-19T06:10:05;99818.56;;;19.99;79.77
76352;BME280;65179;47.786;19.138;2023-09-19T06:12:32;99818.09;;;19.92;80.12
76352;BME280;65179;47.786;19.138;2023-09-19T06:15:00;99828.19;;;19.78;81.29
76352;BME280;65179;47.786;19.138;2023-09-19T06:17:25;99825.72;;;19.76;82.90
76352;BME280;65179;47.786;19.138;2023-09-19T06:19:52;99826.66;;;19.66;84.30
76352;BME280;65179;47.786;19.138;2023-09-19T06:22:18;99829.88;;;19.50;84.38
76352;BME280;65179;47.786;19.138;2023-09-19T06:24:44;99823.72;;;19.58;84.32
76352;BME280;65179;47.786;19.138;2023-09-19T06:27:09;99823.38;;;19.64;84.57
76352;BME280;65179;47.786;19.138;2023-09-19T06:29:35;99829.50;;;19.61;84.25
76352;BME280;65179;47.786;19.138;2023-09-19T06:32:06;99836.88;;;19.42;84.74
76352;BME280;65179;47.786;19.138;2023-09-19T06:34:32;99844.59;;;19.40;85.21
76352;BME280;65179;47.786;19.138;2023-09-19T06:36:58;99848.66;;;19.48;84.45
76352;BME280;65179;47.786;19.138;2023-09-19T06:39:23;99843.44;;;19.46;84.29
76352;BME280;65179;47.786;19.138;2023-09-19T06:41:51;99857.97;;;19.52;84.27
76352;BME280;65179;47.786;19.138;2023-09-19T06:44:18;99862.28;;;19.58;84.11
76352;BME280;65179;47.786;19.138;2023-09-19T06:46:46;99865.34;;;19.56;84.25
76352;BME280;65179;47.786;19.138;2023-09-19T06:49:15;99865.22;;;19.66;84.10
76352;BME280;65179;47.786;19.138;2023-09-19T06:51:40;99871.03;;;19.65;83.97
76352;BME280;65179;47.786;19.138;2023-09-19T06:54:07;99876.78;;;19.68;84.30
76352;BME280;65179;47.786;19.138;2023-09-19T06:56:32;99882.53;;;19.48;84.56
76352;BME280;65179;47.786;19.138;2023-09-19T06:58:58;99888.97;;;19.62;83.87
76352;BME280;65179;47.786;19.138;2023-09-19T07:01:23;99893.72;;;19.57;84.78
76352;BME280;65179;47.786;19.138;2023-09-19T07:03:49;99897.88;;;19.54;84.75
76352;BME280;65179;47.786;19.138;2023-09-19T07:06:14;99898.06;;;19.63;84.80
76352;BME280;65179;47.786;19.138;2023-09-19T07:08:40;99898.38;;;19.61;84.79
76352;BME280;65179;47.786;19.138;2023-09-19T07:11:05;99903.16;;;19.51;85.58
76352;BME280;65179;47.786;19.138;2023-09-19T07:13:31;99909.44;;;19.56;84.94
76352;BME280;65179;47.786;19.138;2023-09-19T07:15:58;99902.81;;;19.57;85.16
76352;BME280;65179;47.786;19.138;2023-09-19T07:18:25;99904.50;;;19.53;85.53
76352;BME280;65179;47.786;19.138;2023-09-19T07:20:50;99915.19;;;19.26;86.95
76352;BME280;65179;47.786;19.138;2023-09-19T07:23:20;99925.03;;;19.32;86.93
76352;BME280;65179;47.786;19.138;2023-09-19T07:25:47;99926.94;;;19.42;86.72
76352;BME280;65179;47.786;19.138;2023-09-19T07:28:12;99921.25;;;19.23;87.88
76352;BME280;65179;47.786;19.138;2023-09-19T07:30:38;99939.97;;;19.26;88.34
76352;BME280;65179;47.786;19.138;2023-09-19T07:33:05;99918.31;;;19.15;88.03
76352;BME280;65179;47.786;19.138;2023-09-19T07:35:30;99924.31;;;18.83;90.04
76352;BME280;65179;47.786;19.138;2023-09-19T07:37:56;99939.22;;;19.16;89.36
76352;BME280;65179;47.786;19.138;2023-09-19T07:40:21;99926.75;;;19.23;88.80
76352;BME280;65179;47.786;19.138;2023-09-19T07:42:49;99926.19;;;19.26;88.60
76352;BME280;65179;47.786;19.138;2023-09-19T07:45:16;99924.22;;;19.32;88.72
76352;BME280;65179;47.786;19.138;2023-09-19T07:47:46;99921.12;;;19.43;88.92
76352;BME280;65179;47.786;19.138;2023-09-19T07:50:13;99920.06;;;19.39;88.60
76352;BME280;65179;47.786;19.138;2023-09-19T07:52:38;99925.56;;;19.39;88.43
76352;BME280;65179;47.786;19.138;2023-09-19T07:55:06;99936.09;;;19.61;87.82
76352;BME280;65179;47.786;19.138;2023-09-19T07:57:37;99934.00;;;19.53;87.82
76352;BME280;65179;47.786;19.138;2023-09-19T08:00:03;99939.97;;;19.60;87.57
76352;BME280;65179;47.786;19.138;2023-09-19T08:02:34;99946.81;;;19.62;86.88
76352;BME280;65179;47.786;19.138;2023-09-19T08:05:00;99942.47;;;19.56;87.96
76352;BME280;65179;47.786;19.138;2023-09-19T08:07:26;99945.28;;;19.51;88.58
76352;BME280;65179;47.786;19.138;2023-09-19T08:09:51;99952.78;;;19.46;89.19
76352;BME280;65179;47.786;19.138;2023-09-19T08:12:16;99952.34;;;19.29;90.23
76352;BME280;65179;47.786;19.138;2023-09-19T08:14:42;99957.25;;;19.37;90.24
76352;BME280;65179;47.786;19.138;2023-09-19T08:17:07;99950.34;;;19.39;90.14
76352;BME280;65179;47.786;19.138;2023-09-19T08:19:35;99951.50;;;19.28;90.69
76352;BME280;65179;47.786;19.138;2023-09-19T08:22:05;99960.28;;;19.40;90.96
76352;BME280;65179;47.786;19.138;2023-09-19T08:24:31;99981.06;;;19.51;91.57
76352;BME280;65179;47.786;19.138;2023-09-19T08:26:58;99971.69;;;19.57;90.63
76352;BME280;65179;47.786;19.138;2023-09-19T08:29:25;99970.87;;;19.52;91.00
76352;BME280;65179;47.786;19.138;2023-09-19T08:31:55;99977.09;;;19.67;90.57
76352;BME280;65179;47.786;19.138;2023-09-19T08:34:21;99982.78;;;19.47;91.48
76352;BME280;65179;47.786;19.138;2023-09-19T08:36:46;99975.69;;;19.36;92.71
76352;BME280;65179;47.786;19.138;2023-09-19T08:39:13;99989.81;;;19.63;90.71
76352;BME280;65179;47.786;19.138;2023-09-19T08:41:39;99990.91;;;19.62;91.21
76352;BME280;65179;47.786;19.138;2023-09-19T08:44:05;99989.81;;;19.63;90.41
76352;BME280;65179;47.786;19.138;2023-09-19T08:46:30;100004.66;;;19.67;90.13
76352;BME280;65179;47.786;19.138;2023-09-19T08:49:04;100003.59;;;19.63;90.31
76352;BME280;65179;47.786;19.138;2023-09-19T08:51:43;100007.34;;;19.39;91.46
76352;BME280;65179;47.786;19.138;2023-09-19T08:54:25;100011.16;;;19.48;90.98
76352;BME280;65179;47.786;19.138;2023-09-19T08:56:54;100009.22;;;19.48;90.52
76352;BME280;65179;47.786;19.138;2023-09-19T08:59:22;100004.38;;;19.25;90.93
76352;BME280;65179;47.786;19.138;2023-09-19T09:01:53;100015.66;;;19.29;90.87
76352;BME280;65179;47.786;19.138;2023-09-19T09:04:19;100007.13;;;19.35;90.28
76352;BME280;65179;47.786;19.138;2023-09-19T09:06:45;100022.53;;;19.31;90.53
76352;BME280;65179;47.786;19.138;2023-09-19T09:09:14;100025.78;;;19.43;89.78
76352;BME280;65179;47.786;19.138;2023-09-19T09:11:40;100036.87;;;19.23;90.75
76352;BME280;65179;47.786;19.138;2023-09-19T09:14:06;100039.59;;;19.33;89.99
76352;BME280;65179;47.786;19.138;2023-09-19T09:16:35;100037.37;;;19.40;89.99
76352;BME280;65179;47.786;19.138;2023-09-19T09:19:00;100033.22;;;19.43;89.60
76352;BME280;65179;47.786;19.138;2023-09-19T09:21:27;100036.38;;;19.60;89.39
76352;BME280;65179;47.786;19.138;2023-09-19T09:23:53;100034.94;;;19.67;89.04
76352;BME280;65179;47.786;19.138;2023-09-19T09:26:42;100041.88;;;19.60;88.83
76352;BME280;65179;47.786;19.138;2023-09-19T09:29:08;100038.91;;;19.56;88.90
76352;BME280;65179;47.786;19.138;2023-09-19T09:31:33;100045.22;;;19.62;88.57
76352;BME280;65179;47.786;19.138;2023-09-19T09:33:59;100043.31;;;19.57;88.75
76352;BME280;65179;47.786;19.138;2023-09-19T09:36:35;100033.78;;;19.40;89.41
76352;BME280;65179;47.786;19.138;2023-09-19T09:39:02;100032.44;;;19.37;89.87
76352;BME280;65179;47.786;19.138;2023-09-19T09:41:41;100028.00;;;19.41;89.92
76352;BME280;65179;47.786;19.138;2023-09-19T09:44:16;100035.19;;;19.32;90.16
76352;BME280;65179;47.786;19.138;2023-09-19T09:46:46;100035.19;;;19.32;90.11
76352;BME280;65179;47.786;19.138;2023-09-19T09:49:24;100034.88;;;19.39;89.68
76352;BME280;65179;47.786;19.138;2023-09-19T09:52:06;100023.25;;;19.47;89.73
76352;BME280;65179;47.786;19.138;2023-09-19T09:54:33;100008.09;;;19.49;90.27
76352;BME280;65179;47.786;19.138;2023-09-19T09:57:06;100024.28;;;19.56;90.43
76352;BME280;65179;47.786;19.138;2023-09-19T09:59:54;100017.47;;;19.48;91.47
76352;BME280;65179;47.786;19.138;2023-09-19T10:02:27;100026.84;;;19.47;93.08
76352;BME280;65179;47.786;19.138;2023-09-19T10:05:18;100038.22;;;19.75;91.22
76352;BME280;65179;47.786;19.138;2023-09-19T10:07:53;100042.38;;;19.67;92.54
76352;BME280;65179;47.786;19.138;2023-09-19T10:13:16;100041.22;;;20.07;90.80
76352;BME280;65179;47.786;19.138;2023-09-19T10:15:46;100031.41;;;20.48;89.66
76352;BME280;65179;47.786;19.138;2023-09-19T10:18:27;100026.91;;;20.57;88.72
76352;BME280;65179;47.786;19.138;2023-09-19T10:20:56;100025.53;;;20.97;86.56
76352;BME280;65179;47.786;19.138;2023-09-19T10:23:22;100028.25;;;21.21;85.28
76352;BME280;65179;47.786;19.138;2023-09-19T10:25:52;100017.97;;;21.07;84.79
76352;BME280;65179;47.786;19.138;2023-09-19T10:28:20;100025.06;;;20.90;86.13
76352;BME280;65179;47.786;19.138;2023-09-19T10:30:50;100015.47;;;20.87;85.48
76352;BME280;65179;47.786;19.138;2023-09-19T10:33:18;100009.75;;;21.02;84.81
76352;BME280;65179;47.786;19.138;2023-09-19T10:35:49;100017.56;;;20.95;85.29
76352;BME280;65179;47.786;19.138;2023-09-19T10:38:19;100003.37;;;21.02;85.00
76352;BME280;65179;47.786;19.138;2023-09-19T10:40:52;100013.66;;;20.96;85.23
76352;BME280;65179;47.786;19.138;2023-09-19T10:43:19;100011.91;;;21.05;84.88
76352;BME280;65179;47.786;19.138;2023-09-19T10:45:47;100015.69;;;20.72;84.19
76352;BME280;65179;47.786;19.138;2023-09-19T10:48:16;100024.47;;;20.74;84.82
76352;BME280;65179;47.786;19.138;2023-09-19T10:53:48;100036.31;;;20.75;84.91
76352;BME280;65179;47.786;19.138;2023-09-19T10:56:33;100030.31;;;20.91;84.19
76352;BME280;65179;47.786;19.138;2023-09-19T10:59:14;100026.44;;;20.92;83.72
76352;BME280;65179;47.786;19.138;2023-09-19T11:04:26;100056.69;;;21.02;82.07
76352;BME280;65179;47.786;19.138;2023-09-19T11:07:07;100053.41;;;21.00;82.66
76352;BME280;65179;47.786;19.138;2023-09-19T11:15:00;100070.16;;;20.85;82.67
76352;BME280;65179;47.786;19.138;2023-09-19T11:17:34;100082.88;;;20.81;82.97
76352;BME280;65179;47.786;19.138;2023-09-19T11:30:38;100093.88;;;20.86;82.46
76352;BME280;65179;47.786;19.138;2023-09-19T11:33:23;100079.06;;;20.77;81.25
76352;BME280;65179;47.786;19.138;2023-09-19T11:36:13;100094.69;;;20.87;81.50
76352;BME280;65179;47.786;19.138;2023-09-19T11:47:01;100103.50;;;21.12;81.10
76352;BME280;65179;47.786;19.138;2023-09-19T11:49:30;100100.53;;;21.28;80.19
76352;BME280;65179;47.786;19.138;2023-09-19T11:51:57;100106.75;;;21.38;79.33
76352;BME280;65179;47.786;19.138;2023-09-19T11:54:26;100102.94;;;21.34;79.07
76352;BME280;65179;47.786;19.138;2023-09-19T11:56:57;100106.00;;;21.51;78.67
76352;BME280;65179;47.786;19.138;2023-09-19T11:59:24;100101.22;;;21.75;77.54
76352;BME280;65179;47.786;19.138;2023-09-19T12:02:06;100103.00;;;22.04;76.36
76352;BME280;65179;47.786;19.138;2023-09-19T12:04:40;100099.38;;;22.35;74.60
76352;BME280;65179;47.786;19.138;2023-09-19T12:07:15;100096.03;;;22.52;72.12
76352;BME280;65179;47.786;19.138;2023-09-19T12:09:45;100101.28;;;22.81;72.43
76352;BME280;65179;47.786;19.138;2023-09-19T12:12:20;100099.88;;;22.97;71.72
76352;BME280;65179;47.786;19.138;2023-09-19T12:14:52;100095.16;;;22.97;72.01
76352;BME280;65179;47.786;19.138;2023-09-19T12:17:18;100094.03;;;23.48;70.17
76352;BME280;65179;47.786;19.138;2023-09-19T12:19:50;100102.63;;;24.18;67.34
76352;BME280;65179;47.786;19.138;2023-09-19T12:22:17;100105.19;;;24.67;65.52
76352;BME280;65179;47.786;19.138;2023-09-19T12:24:44;100096.53;;;24.99;64.68
76352;BME280;65179;47.786;19.138;2023-09-19T12:27:10;100103.50;;;24.79;64.02
76352;BME280;65179;47.786;19.138;2023-09-19T12:29:47;100105.25;;;24.45;64.20
76352;BME280;65179;47.786;19.138;2023-09-19T12:32:34;100093.81;;;24.46;63.82
76352;BME280;65179;47.786;19.138;2023-09-19T12:34:59;100096.38;;;24.73;63.23
76352;BME280;65179;47.786;19.138;2023-09-19T12:37:25;100083.94;;;25.02;62.72
76352;BME280;65179;47.786;19.138;2023-09-19T12:40:04;100096.19;;;25.66;60.67
76352;BME280;65179;47.786;19.138;2023-09-19T12:42:45;100092.66;;;25.34;61.14
76352;BME280;65179;47.786;19.138;2023-09-19T12:45:12;100091.25;;;24.89;63.10
76352;BME280;65179;47.786;19.138;2023-09-19T12:47:40;100097.38;;;24.38;64.32
76352;BME280;65179;47.786;19.138;2023-09-19T12:50:15;100098.19;;;24.08;64.69
76352;BME280;65179;47.786;19.138;2023-09-19T12:52:44;100106.91;;;24.01;65.38
76352;BME280;65179;47.786;19.138;2023-09-19T12:55:23;100102.19;;;23.80;66.10
76352;BME280;65179;47.786;19.138;2023-09-19T12:58:15;100108.13;;;23.51;66.54
76352;BME280;65179;47.786;19.138;2023-09-19T13:00:45;100100.47;;;23.70;66.69
76352;BME280;65179;47.786;19.138;2023-09-19T13:05:55;100102.16;;;23.58;67.31
76352;BME280;65179;47.786;19.138;2023-09-19T13:08:29;100101.91;;;23.68;67.14
76352;BME280;65179;47.786;19.138;2023-09-19T13:11:13;100106.53;;;23.59;66.93
76352;BME280;65179;47.786;19.138;2023-09-19T13:13:44;100093.00;;;23.57;67.31
76352;BME280;65179;47.786;19.138;2023-09-19T13:16:11;100097.94;;;23.60;66.70
76352;BME280;65179;47.786;19.138;2023-09-19T13:18:58;100097.19;;;23.68;66.56
76352;BME280;65179;47.786;19.138;2023-09-19T13:21:31;100095.75;;;23.93;66.35
76352;BME280;65179;47.786;19.138;2023-09-19T13:24:23;100092.00;;;23.97;66.26
76352;BME280;65179;47.786;19.138;2023-09-19T13:26:53;100091.47;;;24.09;66.04
76352;BME280;65179;47.786;19.138;2023-09-19T13:29:18;100100.34;;;23.97;66.34
76352;BME280;65179;47.786;19.138;2023-09-19T13:31:50;100092.38;;;23.82;66.00
76352;BME280;65179;47.786;19.138;2023-09-19T13:34:18;100100.22;;;24.02;65.26
76352;BME280;65179;47.786;19.138;2023-09-19T13:36:44;100103.72;;;24.08;64.99
76352;BME280;65179;47.786;19.138;2023-09-19T13:39:10;100101.09;;;23.89;64.74
76352;BME280;65179;47.786;19.138;2023-09-19T13:41:38;100101.09;;;23.89;64.48
76352;BME280;65179;47.786;19.138;2023-09-19T13:44:04;100101.25;;;24.06;62.47
76352;BME280;65179;47.786;19.138;2023-09-19T13:46:30;100102.00;;;24.21;62.15
76352;BME280;65179;47.786;19.138;2023-09-19T13:48:58;100099.09;;;24.26;62.23
76352;BME280;65179;47.786;19.138;2023-09-19T13:51:25;100103.28;;;24.15;62.83